Time;durP1;ratioP1;P1;durP2;ratioP2;P2;SDS_P1;SDS_P2;PMS_P1;PMS_P2;Temp;Humidity;BMP_temperature;BMP_pressure;BME280_temperature;BME280_humidity;BME280_pressure;Samples;Min_cycle;Max_cycle;Signal;HPM_P1;HPM_P2
2021/01/03 00:01:46;;;;;;;48.20;27.73;;;3.50;65.70;;;;;;6193318;23;20008;-84
2021/01/03 00:04:13;;;;;;;49.27;27.97;;;3.50;65.50;;;;;;6220176;23;20035;-84
2021/01/03 00:06:38;;;;;;;48.17;27.47;;;3.50;65.40;;;;;;6192710;23;20476;-84
2021/01/03 00:09:05;;;;;;;53.40;29.27;;;3.50;65.30;;;;;;6193040;23;20039;-84
2021/01/03 00:11:31;;;;;;;44.23;28.20;;;3.40;65.30;;;;;;6220592;23;20044;-84
2021/01/03 00:13:57;;;;;;;52.03;29.43;;;3.40;65.40;;;;;;6194378;23;20427;-84
2021/01/03 00:16:23;;;;;;;54.83;29.67;;;3.40;65.40;;;;;;6192670;23;20335;-85
2021/01/03 00:18:48;;;;;;;53.90;30.03;;;3.30;65.40;;;;;;6194449;23;20058;-84
2021/01/03 00:21:14;;;;;;;58.33;31.53;;;3.30;65.60;;;;;;6193755;23;20001;-84
2021/01/03 00:23:40;;;;;;;56.03;31.23;;;3.30;65.70;;;;;;6193474;23;20001;-84
2021/01/03 00:26:06;;;;;;;58.90;32.60;;;3.30;65.70;;;;;;6219840;23;20072;-84
2021/01/03 00:28:32;;;;;;;67.07;36.07;;;3.30;65.70;;;;;;6194128;23;20005;-84
2021/01/03 00:30:58;;;;;;;64.07;34.67;;;3.30;65.70;;;;;;6168326;23;20009;-83
2021/01/03 00:33:24;;;;;;;48.93;28.73;;;3.30;65.80;;;;;;6193327;23;20015;-84
2021/01/03 00:35:49;;;;;;;54.70;30.87;;;3.30;65.70;;;;;;6193062;23;20087;-84
2021/01/03 00:38:16;;;;;;;56.10;30.50;;;3.30;65.60;;;;;;6220285;23;20142;-84
2021/01/03 00:40:42;;;;;;;51.10;30.07;;;3.30;65.50;;;;;;6193948;23;20150;-84
2021/01/03 00:43:10;;;;;;;52.40;27.60;;;3.30;65.60;;;;;;6164971;23;20028;-84
2021/01/03 00:45:37;;;;;;;55.83;31.07;;;3.30;65.50;;;;;;6160639;23;20013;-83
2021/01/03 00:48:04;;;;;;;55.73;31.07;;;3.30;65.50;;;;;;6161968;23;20001;-83
2021/01/03 00:50:30;;;;;;;65.13;32.97;;;3.30;65.50;;;;;;6162225;23;20088;-83
2021/01/03 00:52:56;;;;;;;62.13;32.07;;;3.40;65.50;;;;;;6162069;23;20035;-83
2021/01/03 00:55:22;;;;;;;60.37;32.90;;;3.40;65.60;;;;;;6161637;23;20004;-84
2021/01/03 00:57:48;;;;;;;66.27;33.37;;;3.40;65.80;;;;;;6187571;23;20031;-84
2021/01/03 01:00:24;;;;;;;65.57;33.30;;;3.40;65.70;;;;;;6161266;23;20001;-84
2021/01/03 01:02:50;;;;;;;63.17;33.43;;;3.40;65.80;;;;;;6162488;23;20005;-84
2021/01/03 01:05:18;;;;;;;66.50;34.90;;;3.40;65.70;;;;;;6163017;23;19997;-84
2021/01/03 01:07:44;;;;;;;64.63;33.90;;;3.40;65.80;;;;;;6161636;23;20001;-84
2021/01/03 01:10:30;;;;;;;72.53;35.90;;;3.40;65.90;;;;;;6161651;23;20035;-84
2021/01/03 01:13:00;;;;;;;68.60;33.93;;;3.40;65.90;;;;;;6162051;23;20005;-84
2021/01/03 01:15:28;;;;;;;68.03;33.73;;;3.40;65.90;;;;;;6161793;23;20016;-84
2021/01/03 01:17:56;;;;;;;71.10;35.97;;;3.50;66.00;;;;;;6161500;23;20313;-84
2021/01/03 01:20:27;;;;;;;72.90;35.00;;;3.50;66.00;;;;;;6186002;23;20439;-84
2021/01/03 01:22:53;;;;;;;70.07;35.27;;;3.40;65.90;;;;;;6161268;23;20405;-83
2021/01/03 01:25:25;;;;;;;65.27;33.57;;;3.40;66.00;;;;;;6161047;23;20024;-83
2021/01/03 01:27:52;;;;;;;68.43;34.60;;;3.40;66.00;;;;;;6161242;23;20040;-83
2021/01/03 01:30:19;;;;;;;72.87;35.40;;;3.40;66.60;;;;;;6161895;23;20001;-83
2021/01/03 01:32:45;;;;;;;71.37;35.80;;;3.40;66.10;;;;;;6162773;23;20012;-82
2021/01/03 01:35:13;;;;;;;71.20;34.23;;;3.40;66.10;;;;;;6160018;23;20009;-81
2021/01/03 01:37:39;;;;;;;70.53;34.03;;;3.40;66.10;;;;;;6160228;23;20372;-81
2021/01/03 01:40:07;;;;;;;64.80;32.60;;;3.50;66.20;;;;;;6160874;23;20029;-81
2021/01/03 01:42:33;;;;;;;56.07;31.27;;;3.40;66.00;;;;;;6209528;23;20021;-81
2021/01/03 01:45:00;;;;;;;49.47;28.03;;;3.50;66.60;;;;;;6217926;23;20075;-81
2021/01/03 01:47:32;;;;;;;50.13;28.20;;;3.50;66.00;;;;;;6191483;23;20005;-81
2021/01/03 01:50:01;;;;;;;57.77;29.80;;;3.50;66.10;;;;;;6191793;23;20008;-81
2021/01/03 01:52:33;;;;;;;57.00;31.40;;;3.50;65.80;;;;;;6191885;23;20005;-81
2021/01/03 01:55:03;;;;;;;61.47;31.25;;;3.50;65.70;;;;;;6191780;23;20008;-81
2021/01/03 01:57:33;;;;;;;50.97;29.53;;;3.40;65.60;;;;;;6191085;23;20012;-81
2021/01/03 02:00:18;;;;;;;55.53;29.80;;;3.50;65.80;;;;;;6217427;23;20003;-82
2021/01/03 02:03:00;;;;;;;64.20;31.03;;;3.50;65.70;;;;;;6191106;23;20024;-82
2021/01/03 02:05:37;;;;;;;58.27;30.43;;;3.40;65.60;;;;;;6189561;23;20001;-81
2021/01/03 02:08:11;;;;;;;59.97;30.43;;;3.40;65.60;;;;;;6190722;23;20011;-82
2021/01/03 02:10:44;;;;;;;53.87;30.17;;;3.40;65.70;;;;;;6217199;23;20000;-82
2021/01/03 02:13:24;;;;;;;58.33;30.37;;;3.40;65.60;;;;;;6189882;23;20028;-82
2021/01/03 02:15:52;;;;;;;67.67;31.80;;;3.50;65.70;;;;;;6217361;23;20332;-82
2021/01/03 02:18:20;;;;;;;65.70;32.33;;;3.40;65.60;;;;;;6218183;23;20302;-82
2021/01/03 02:20:55;;;;;;;65.43;34.30;;;3.50;65.80;;;;;;6191119;23;20012;-82
2021/01/03 02:23:48;;;;;;;68.23;33.83;;;3.50;65.80;;;;;;6217188;23;20079;-82
2021/01/03 02:26:15;;;;;;;62.55;33.20;;;3.50;65.70;;;;;;6164716;23;20004;-82
2021/01/03 02:28:43;;;;;;;72.90;34.13;;;3.50;65.60;;;;;;6190771;23;20012;-82
2021/01/03 02:31:12;;;;;;;65.97;33.00;;;3.50;65.80;;;;;;6190445;23;20004;-82
2021/01/03 02:33:47;;;;;;;72.43;33.97;;;3.50;65.70;;;;;;6190390;23;20004;-82
2021/01/03 02:36:16;;;;;;;70.23;33.87;;;3.50;66.40;;;;;;6190701;23;20032;-82
2021/01/03 02:38:54;;;;;;;70.70;34.37;;;3.50;65.80;;;;;;6190527;23;20007;-82
2021/01/03 02:41:19;;;;;;;68.03;34.07;;;3.60;65.90;;;;;;6182718;23;20306;-82
2021/01/03 02:43:45;;;;;;;72.67;34.40;;;3.60;65.90;;;;;;6159593;23;20015;-82
2021/01/03 02:46:11;;;;;;;66.37;33.20;;;3.60;65.80;;;;;;6184923;23;20012;-82
2021/01/03 02:48:37;;;;;;;70.73;33.10;;;3.50;65.70;;;;;;6159782;23;20001;-82
2021/01/03 02:51:03;;;;;;;70.50;34.40;;;3.60;65.70;;;;;;6160466;23;20479;-82
2021/01/03 02:53:28;;;;;;;68.50;33.80;;;3.50;65.70;;;;;;6187030;23;20021;-82
2021/01/03 02:55:54;;;;;;;67.67;32.60;;;3.60;65.70;;;;;;6159662;23;20060;-82
2021/01/03 02:58:20;;;;;;;71.23;33.70;;;3.60;65.70;;;;;;6160678;23;20056;-82
2021/01/03 03:00:45;;;;;;;71.57;33.70;;;3.60;65.70;;;;;;6160810;23;20011;-82
2021/01/03 03:03:11;;;;;;;77.80;35.63;;;3.60;65.80;;;;;;6160501;23;20033;-82
2021/01/03 03:05:37;;;;;;;76.43;34.70;;;3.60;65.90;;;;;;6186468;23;20861;-82
2021/01/03 03:08:04;;;;;;;61.63;33.70;;;3.60;65.80;;;;;;6186298;23;20009;-82
2021/01/03 03:10:30;;;;;;;73.60;34.93;;;3.60;65.90;;;;;;6186138;23;20055;-82
2021/01/03 03:12:58;;;;;;;72.63;35.30;;;3.60;65.90;;;;;;6160926;23;20016;-82
2021/01/03 03:15:26;;;;;;;69.60;34.33;;;3.60;65.90;;;;;;6186967;23;20054;-82
2021/01/03 03:17:52;;;;;;;66.10;32.67;;;3.50;66.00;;;;;;6186949;23;20008;-82
2021/01/03 03:20:19;;;;;;;63.90;33.60;;;3.60;66.10;;;;;;6187235;23;19997;-83
2021/01/03 03:22:46;;;;;;;72.60;35.90;;;3.60;66.10;;;;;;6185879;23;19997;-83
2021/01/03 03:25:13;;;;;;;66.83;34.37;;;3.60;66.20;;;;;;6159919;23;20340;-82
2021/01/03 03:27:39;;;;;;;73.60;35.40;;;3.60;66.20;;;;;;6160496;23;20005;-82
2021/01/03 03:30:07;;;;;;;64.37;33.33;;;3.60;66.10;;;;;;6159952;23;20012;-82
2021/01/03 03:32:33;;;;;;;67.00;33.27;;;3.60;66.10;;;;;;6160172;23;20017;-82
2021/01/03 03:34:59;;;;;;;70.03;34.67;;;3.50;66.10;;;;;;6160382;23;20011;-82
2021/01/03 03:37:25;;;;;;;66.47;32.90;;;3.50;66.20;;;;;;6159922;23;20015;-82
2021/01/03 03:39:51;;;;;;;66.63;32.67;;;3.60;66.20;;;;;;6161244;23;20033;-82
2021/01/03 03:42:16;;;;;;;68.97;33.13;;;3.50;66.10;;;;;;6205647;23;20024;-83
2021/01/03 03:44:43;;;;;;;66.73;33.03;;;3.50;66.20;;;;;;6189310;23;20000;-82
2021/01/03 03:47:09;;;;;;;64.70;32.50;;;3.50;66.10;;;;;;6190513;23;20597;-82
2021/01/03 03:49:35;;;;;;;59.97;30.07;;;3.50;66.30;;;;;;6189791;23;20012;-82
2021/01/03 03:52:05;;;;;;;55.27;28.20;;;3.50;66.00;;;;;;6189465;23;20007;-82
2021/01/03 03:54:31;;;;;;;52.47;27.77;;;3.50;66.20;;;;;;6189492;23;20001;-82
2021/01/03 03:57:00;;;;;;;57.93;29.27;;;3.50;66.00;;;;;;6189605;23;20012;-82
2021/01/03 03:59:26;;;;;;;57.87;29.33;;;3.50;65.90;;;;;;6189839;23;20005;-82
2021/01/03 04:01:53;;;;;;;61.67;29.77;;;3.50;65.80;;;;;;6188954;23;19997;-82
2021/01/03 04:04:19;;;;;;;58.63;30.90;;;3.50;65.80;;;;;;6189508;23;20012;-83
2021/01/03 04:06:45;;;;;;;57.07;31.00;;;3.50;65.80;;;;;;6188955;23;20096;-83
2021/01/03 04:09:12;;;;;;;60.10;32.83;;;3.50;65.90;;;;;;6188278;23;20005;-83
2021/01/03 04:11:39;;;;;;;55.17;30.40;;;3.50;66.10;;;;;;6188871;23;20087;-83
2021/01/03 04:14:05;;;;;;;66.20;31.90;;;3.50;66.10;;;;;;6188729;23;20020;-82
2021/01/03 04:16:31;;;;;;;61.10;31.40;;;3.50;66.00;;;;;;6188852;23;20031;-82
2021/01/03 04:18:57;;;;;;;58.40;30.17;;;3.50;66.10;;;;;;6189724;23;20474;-82
2021/01/03 04:21:22;;;;;;;55.37;28.37;;;3.50;66.10;;;;;;6189939;23;20087;-82
2021/01/03 04:23:48;;;;;;;52.07;29.33;;;3.50;65.90;;;;;;6190242;23;20015;-82
2021/01/03 04:26:21;;;;;;;53.23;28.83;;;3.50;66.00;;;;;;6190266;23;20005;-83
2021/01/03 04:28:47;;;;;;;56.42;29.48;;;3.50;65.90;;;;;;6189546;23;20009;-83
2021/01/03 04:31:18;;;;;;;51.17;28.63;;;3.60;65.80;;;;;;6218147;23;20383;-83
2021/01/03 04:33:44;;;;;;;54.20;28.27;;;3.60;65.70;;;;;;6190102;23;20340;-83
2021/01/03 04:36:15;;;;;;;58.40;29.67;;;3.60;65.60;;;;;;6191238;23;20475;-83
2021/01/03 04:38:41;;;;;;;62.00;30.40;;;3.60;65.60;;;;;;6190886;23;20530;-83
2021/01/03 04:41:17;;;;;;;65.97;31.47;;;3.60;65.70;;;;;;6190826;23;20017;-83
2021/01/03 04:43:44;;;;;;;66.77;33.47;;;3.60;65.70;;;;;;6191024;23;20066;-83
2021/01/03 04:46:15;;;;;;;71.97;34.40;;;3.60;65.70;;;;;;6190158;23;20005;-83
2021/01/03 04:48:42;;;;;;;66.13;34.13;;;3.50;65.70;;;;;;6190901;23;20001;-83
2021/01/03 04:51:08;;;;;;;63.87;31.77;;;3.50;65.80;;;;;;6191088;23;20000;-83
2021/01/03 04:53:48;;;;;;;56.27;30.07;;;3.50;65.90;;;;;;6192034;23;20008;-83
2021/01/03 04:56:18;;;;;;;53.60;28.53;;;3.50;65.90;;;;;;6191631;23;20512;-83
2021/01/03 04:59:20;;;;;;;53.53;28.83;;;3.50;65.80;;;;;;6191513;23;20008;-83
2021/01/03 05:02:24;;;;;;;50.87;27.60;;;3.50;65.90;;;;;;6191276;23;20058;-83
2021/01/03 05:05:11;;;;;;;46.83;26.03;;;3.50;65.90;;;;;;6190802;23;20058;-83
2021/01/03 05:07:43;;;;;;;53.10;29.57;;;3.50;65.60;;;;;;6191521;23;20420;-83
2021/01/03 05:10:16;;;;;;;49.15;27.15;;;3.50;65.90;;;;;;6191319;23;20027;-83
2021/01/03 05:13:20;;;;;;;50.10;27.23;;;3.60;65.90;;;;;;6190780;23;20004;-83
2021/01/03 05:15:46;;;;;;;48.60;28.13;;;3.60;65.90;;;;;;6061410;23;20093;-83
2021/01/03 05:18:12;;;;;;;51.00;27.47;;;3.60;65.80;;;;;;6187489;23;20431;-83
2021/01/03 05:20:38;;;;;;;53.83;28.80;;;3.70;65.80;;;;;;6189820;23;20000;-83
2021/01/03 05:23:20;;;;;;;55.37;28.27;;;3.60;65.50;;;;;;6189978;23;20371;-83
2021/01/03 05:25:47;;;;;;;46.60;26.87;;;3.60;65.40;;;;;;6217616;23;20066;-83
2021/01/03 05:28:22;;;;;;;51.97;28.37;;;3.60;65.40;;;;;;6190194;23;20018;-83
2021/01/03 05:30:48;;;;;;;54.70;28.93;;;3.70;65.30;;;;;;6190233;23;20000;-83
2021/01/03 05:33:25;;;;;;;55.53;29.17;;;3.60;65.30;;;;;;6216766;23;20772;-83
2021/01/03 05:35:52;;;;;;;54.43;29.77;;;3.60;65.40;;;;;;6190806;23;20005;-84
2021/01/03 05:38:41;;;;;;;48.50;27.67;;;3.60;65.50;;;;;;6217946;23;20011;-84
2021/01/03 05:41:12;;;;;;;49.07;28.67;;;3.50;65.60;;;;;;6217332;23;20012;-83
2021/01/03 05:43:38;;;;;;;52.53;27.53;;;3.50;65.70;;;;;;6216783;23;20023;-83
2021/01/03 05:46:13;;;;;;;47.00;26.80;;;3.50;65.70;;;;;;6218504;23;20474;-83
2021/01/03 05:48:54;;;;;;;49.93;27.50;;;3.50;65.50;;;;;;6191770;23;20008;-83
2021/01/03 05:51:49;;;;;;;52.63;27.63;;;3.50;65.40;;;;;;6190387;23;20001;-83
2021/01/03 05:54:36;;;;;;;49.40;25.77;;;3.50;65.30;;;;;;6216943;23;20095;-83
2021/01/03 05:57:07;;;;;;;53.13;29.70;;;3.50;65.40;;;;;;6190382;23;20008;-83
2021/01/03 05:59:37;;;;;;;51.70;28.83;;;3.50;65.40;;;;;;6189550;23;20482;-83
2021/01/03 06:02:21;;;;;;;50.60;27.40;;;3.50;65.40;;;;;;6189418;23;20001;-83
2021/01/03 06:05:00;;;;;;;50.37;28.63;;;3.60;65.50;;;;;;6190550;23;20771;-83
2021/01/03 06:07:28;;;;;;;51.60;28.70;;;3.60;65.20;;;;;;6190422;23;20401;-83
2021/01/03 06:09:54;;;;;;;54.50;28.10;;;3.50;65.10;;;;;;6190029;23;20038;-83
2021/01/03 06:12:26;;;;;;;53.83;27.70;;;3.50;65.10;;;;;;6217566;23;20011;-83
2021/01/03 06:14:55;;;;;;;47.25;27.70;;;3.50;65.20;;;;;;6216547;23;20009;-83
2021/01/03 06:17:32;;;;;;;53.47;29.47;;;3.50;65.10;;;;;;6190866;23;20062;-83
2021/01/03 06:20:14;;;;;;;48.03;27.57;;;3.50;65.10;;;;;;6189641;23;20332;-83
2021/01/03 06:22:51;;;;;;;53.40;29.27;;;3.40;65.00;;;;;;6191014;23;20381;-83
2021/01/03 06:25:19;;;;;;;49.20;27.57;;;3.40;65.10;;;;;;6190080;23;20082;-83
2021/01/03 06:27:48;;;;;;;45.47;24.23;;;3.40;65.20;;;;;;6190653;23;20004;-83
2021/01/03 06:30:15;;;;;;;42.47;24.40;;;3.40;65.10;;;;;;6190545;23;20539;-83
2021/01/03 06:33:16;;;;;;;45.57;23.93;;;3.50;64.90;;;;;;6190720;23;20008;-83
2021/01/03 06:35:56;;;;;;;46.30;24.53;;;3.50;65.00;;;;;;6183678;23;20004;-83
2021/01/03 06:38:42;;;;;;;42.03;23.37;;;3.50;64.50;;;;;;6190976;23;20472;-83
2021/01/03 06:41:18;;;;;;;59.20;29.80;;;3.50;64.30;;;;;;6191797;23;20377;-83
2021/01/03 06:44:00;;;;;;;52.20;27.10;;;3.50;64.40;;;;;;6190719;23;20424;-83
2021/01/03 06:47:04;;;;;;;52.43;28.00;;;3.50;64.40;;;;;;6191314;23;19997;-83
2021/01/03 06:50:24;;;;;;;58.60;30.90;;;3.50;64.50;;;;;;6134535;23;20051;-83
2021/01/03 06:53:01;;;;;;;62.37;32.07;;;3.50;64.50;;;;;;6042881;23;20135;-82
2021/01/03 06:55:45;;;;;;;53.53;29.83;;;3.50;64.80;;;;;;6197816;23;19997;-82
2021/01/03 06:58:29;;;;;;;64.10;32.17;;;3.50;65.10;;;;;;6217960;23;20005;-82
2021/01/03 07:01:39;;;;;;;57.30;29.43;;;3.40;65.00;;;;;;6218031;23;20039;-82
2021/01/03 07:04:15;;;;;;;51.60;28.63;;;3.40;65.20;;;;;;6111266;23;20631;-82
2021/01/03 07:06:44;;;;;;;45.50;24.50;;;3.40;65.80;;;;;;6190891;23;20009;-82
2021/01/03 07:09:11;;;;;;;47.27;26.07;;;3.40;65.20;;;;;;6189855;23;20008;-83
2021/01/03 07:11:46;;;;;;;51.10;27.67;;;3.40;64.70;;;;;;6190918;23;20013;-83
2021/01/03 07:14:21;;;;;;;46.00;25.30;;;3.50;64.50;;;;;;6192398;23;20009;-83
2021/01/03 07:17:08;;;;;;;46.47;27.17;;;3.40;64.00;;;;;;6191163;23;20039;-82
2021/01/03 07:19:55;;;;;;;45.03;25.20;;;3.40;64.00;;;;;;6190353;23;20034;-82
2021/01/03 07:22:35;;;;;;;42.90;24.23;;;3.40;63.90;;;;;;6191056;23;20004;-83
2021/01/03 07:25:00;;;;;;;54.40;26.77;;;3.30;63.70;;;;;;6190010;23;20428;-83
2021/01/03 07:27:39;;;;;;;42.70;23.07;;;3.30;63.90;;;;;;6190517;23;20009;-83
2021/01/03 07:30:04;;;;;;;40.37;22.57;;;3.50;64.20;;;;;;6188996;23;20039;-83
2021/01/03 07:32:34;;;;;;;37.63;20.70;;;3.60;63.80;;;;;;6189978;23;20013;-83
2021/01/03 07:35:08;;;;;;;39.30;22.50;;;3.60;63.60;;;;;;6189766;23;20001;-83
2021/01/03 07:37:35;;;;;;;41.90;24.17;;;3.60;63.50;;;;;;6216367;23;20008;-83
2021/01/03 07:40:03;;;;;;;43.83;25.57;;;3.60;63.20;;;;;;6189031;23;20005;-83
2021/01/03 07:42:34;;;;;;;45.17;24.43;;;3.60;63.00;;;;;;6167412;23;20017;-83
2021/01/03 07:45:05;;;;;;;40.77;23.73;;;3.60;63.20;;;;;;6184878;23;20004;-82
2021/01/03 07:47:47;;;;;;;41.27;24.03;;;3.60;63.10;;;;;;6157919;23;20008;-82
2021/01/03 07:50:39;;;;;;;45.50;24.55;;;3.50;63.10;;;;;;6187507;23;20005;-82
2021/01/03 07:53:34;;;;;;;46.22;25.10;;;3.50;62.90;;;;;;6159023;23;20005;-82
2021/01/03 07:56:24;;;;;;;46.57;24.73;;;3.50;63.00;;;;;;6160681;23;20047;-82
2021/01/03 07:58:55;;;;;;;50.03;26.00;;;3.50;62.90;;;;;;6187841;23;20373;-82
2021/01/03 08:01:26;;;;;;;42.70;24.93;;;3.50;62.80;;;;;;6161012;23;20016;-82
2021/01/03 08:03:52;;;;;;;50.60;27.80;;;3.60;62.70;;;;;;6185155;23;20007;-82
2021/01/03 08:06:19;;;;;;;51.13;28.93;;;3.60;62.80;;;;;;6160548;23;20033;-83
2021/01/03 08:08:55;;;;;;;48.57;27.60;;;3.60;62.60;;;;;;6187413;23;19997;-83
2021/01/03 08:11:31;;;;;;;49.07;27.50;;;3.60;62.80;;;;;;6160811;23;20015;-83
2021/01/03 08:14:04;;;;;;;48.53;26.60;;;3.70;62.80;;;;;;6187227;23;20005;-83
2021/01/03 08:16:30;;;;;;;48.47;27.92;;;3.70;62.70;;;;;;6161178;23;20020;-83
2021/01/03 08:19:05;;;;;;;46.47;25.63;;;3.70;62.60;;;;;;6160783;23;20088;-83
2021/01/03 08:21:33;;;;;;;48.03;27.33;;;3.70;62.70;;;;;;6161094;23;20009;-83
2021/01/03 08:24:14;;;;;;;53.63;28.17;;;3.70;62.70;;;;;;6160403;23;20008;-83
2021/01/03 08:26:53;;;;;;;56.30;30.87;;;3.70;62.60;;;;;;6161315;23;20001;-83
2021/01/03 08:29:43;;;;;;;54.30;30.77;;;3.70;62.80;;;;;;6161320;23;20033;-83
2021/01/03 08:32:16;;;;;;;58.07;30.63;;;3.70;63.00;;;;;;6161017;23;20009;-83
2021/01/03 08:34:42;;;;;;;57.50;31.97;;;3.70;63.00;;;;;;6187682;23;20439;-83
2021/01/03 08:37:37;;;;;;;58.73;30.50;;;3.60;63.00;;;;;;6161557;23;20012;-83
2021/01/03 08:40:19;;;;;;;55.23;29.80;;;3.60;63.20;;;;;;6150414;23;20001;-83
2021/01/03 08:42:53;;;;;;;54.15;28.20;;;3.60;63.10;;;;;;6211397;23;20009;-83
2021/01/03 08:45:27;;;;;;;51.30;27.90;;;3.70;63.10;;;;;;6191321;23;19997;-83
2021/01/03 08:47:53;;;;;;;51.93;29.30;;;3.70;63.00;;;;;;6191608;23;20091;-83
2021/01/03 08:50:24;;;;;;;53.73;30.27;;;3.70;62.90;;;;;;6191200;23;20001;-83
2021/01/03 08:52:54;;;;;;;53.17;30.20;;;3.80;62.80;;;;;;6191151;23;20375;-83
2021/01/03 08:55:21;;;;;;;52.57;29.57;;;3.70;62.80;;;;;;6191176;23;20015;-83
2021/01/03 08:57:58;;;;;;;58.93;30.13;;;3.70;62.80;;;;;;6191863;23;20009;-83
2021/01/03 09:00:27;;;;;;;51.83;29.67;;;3.80;63.50;;;;;;6190392;23;20007;-83
2021/01/03 09:02:57;;;;;;;56.13;29.93;;;3.80;62.90;;;;;;6216881;23;19996;-83
2021/01/03 09:05:29;;;;;;;52.17;29.33;;;3.70;62.90;;;;;;6217504;23;20024;-83
2021/01/03 09:07:55;;;;;;;58.13;30.50;;;3.70;62.90;;;;;;6189871;23;20066;-83
2021/01/03 09:10:31;;;;;;;51.83;30.13;;;3.80;63.00;;;;;;6188579;23;20031;-83
2021/01/03 09:13:25;;;;;;;59.33;32.13;;;3.90;63.00;;;;;;6217486;23;20001;-83
2021/01/03 09:16:15;;;;;;;69.77;38.03;;;3.90;63.00;;;;;;6217368;23;20079;-83
2021/01/03 09:19:13;;;;;;;53.90;31.57;;;3.80;63.00;;;;;;6189714;23;20432;-83
2021/01/03 09:21:52;;;;;;;59.27;31.67;;;3.90;63.10;;;;;;6177929;23;20001;-83
2021/01/03 09:24:24;;;;;;;54.33;31.00;;;3.90;63.10;;;;;;6217399;23;20036;-83
2021/01/03 09:26:50;;;;;;;;;;;4.00;63.10;;;;;;6191500;23;20455;-83
2021/01/03 09:29:26;;;;;;;57.33;29.97;;;4.10;62.90;;;;;;6190500;23;19903;-83
2021/01/03 09:32:04;;;;;;;56.83;30.63;;;4.00;62.70;;;;;;6190516;23;20007;-83
2021/01/03 09:34:39;;;;;;;60.80;31.17;;;4.00;62.90;;;;;;6190828;23;20008;-83
2021/01/03 09:37:23;;;;;;;66.07;33.37;;;4.00;62.90;;;;;;6191259;23;20012;-83
2021/01/03 09:40:17;;;;;;;56.27;30.23;;;4.00;63.00;;;;;;6189921;23;20008;-83
2021/01/03 09:43:06;;;;;;;56.67;30.97;;;4.00;63.00;;;;;;6166075;23;20028;-83
2021/01/03 09:45:46;;;;;;;57.50;30.17;;;4.00;63.10;;;;;;6186866;23;20005;-83
2021/01/03 09:48:46;;;;;;;53.97;30.93;;;4.10;63.00;;;;;;6160552;23;20463;-83
2021/01/03 09:51:32;;;;;;;57.13;30.93;;;4.10;62.80;;;;;;6107088;23;20009;-83
2021/01/03 09:54:19;;;;;;;50.80;28.87;;;4.00;63.10;;;;;;6160794;23;20024;-83
2021/01/03 09:56:49;;;;;;;56.23;30.90;;;4.00;63.10;;;;;;6160626;23;20016;-83
2021/01/03 09:59:17;;;;;;;57.93;31.47;;;4.00;63.20;;;;;;6160802;23;20321;-83
2021/01/03 10:01:45;;;;;;;56.87;28.93;;;4.00;63.10;;;;;;6187277;23;20013;-83
2021/01/03 10:04:18;;;;;;;56.67;29.43;;;4.10;63.10;;;;;;6188697;23;20000;-83
2021/01/03 10:07:06;;;;;;;59.10;32.57;;;4.10;63.20;;;;;;6188992;23;20009;-83
2021/01/03 10:09:33;;;;;;;54.50;30.20;;;4.20;63.00;;;;;;6159319;23;20001;-83
2021/01/03 10:12:16;;;;;;;56.17;30.20;;;4.20;62.90;;;;;;6187908;23;20069;-83
2021/01/03 10:14:42;;;;;;;60.60;31.37;;;4.30;62.90;;;;;;6161210;23;20486;-83
2021/01/03 10:17:19;;;;;;;56.57;31.40;;;4.30;62.90;;;;;;6160752;23;20009;-83
2021/01/03 10:19:45;;;;;;;57.07;31.73;;;4.30;62.90;;;;;;6161785;23;20487;-83
2021/01/03 10:22:41;;;;;;;56.13;30.47;;;4.30;62.90;;;;;;6188045;23;20494;-83
2021/01/03 10:25:11;;;;;;;56.30;31.40;;;4.30;62.90;;;;;;6158797;23;20455;-83
2021/01/03 10:27:37;;;;;;;55.33;30.30;;;4.30;62.80;;;;;;6161508;23;20028;-83
2021/01/03 10:30:06;;;;;;;54.53;30.50;;;4.30;62.80;;;;;;6158460;23;20380;-83
2021/01/03 10:32:31;;;;;;;59.50;31.93;;;4.30;62.90;;;;;;6186721;23;20005;-83
2021/01/03 10:34:57;;;;;;;59.97;31.20;;;4.30;62.80;;;;;;6160819;23;20005;-83
2021/01/03 10:37:23;;;;;;;52.90;29.30;;;4.40;62.90;;;;;;6161023;23;20375;-83
2021/01/03 10:39:48;;;;;;;52.47;29.50;;;4.40;62.80;;;;;;6157949;23;20739;-83
2021/01/03 10:42:15;;;;;;;52.93;29.60;;;4.40;62.70;;;;;;6205591;23;20013;-83
2021/01/03 10:44:40;;;;;;;56.23;29.83;;;4.50;62.60;;;;;;6217295;23;20000;-83
2021/01/03 10:47:24;;;;;;;53.87;29.10;;;4.50;62.50;;;;;;6216773;23;20001;-83
2021/01/03 10:49:49;;;;;;;51.27;28.43;;;4.60;62.50;;;;;;6216969;23;20030;-83
2021/01/03 10:52:15;;;;;;;52.03;27.73;;;4.60;62.20;;;;;;6190778;23;20008;-83
2021/01/03 10:54:41;;;;;;;49.63;26.23;;;4.50;62.10;;;;;;6217109;23;20008;-83
2021/01/03 10:57:07;;;;;;;52.77;28.30;;;4.50;62.20;;;;;;6188592;23;20087;-83
2021/01/03 10:59:33;;;;;;;46.47;25.77;;;4.60;62.20;;;;;;6190198;23;20009;-83
2021/01/03 11:01:58;;;;;;;48.60;25.90;;;4.60;62.20;;;;;;6188596;23;20011;-83
2021/01/03 11:05:10;;;;;;;52.80;26.13;;;4.70;62.00;;;;;;6190083;23;20450;-83
2021/01/03 11:07:38;;;;;;;46.50;24.70;;;4.60;61.80;;;;;;6189118;23;20091;-83
2021/01/03 11:10:05;;;;;;;43.03;23.23;;;4.60;61.80;;;;;;6189936;23;20016;-83
2021/01/03 11:12:31;;;;;;;45.77;23.60;;;4.60;61.70;;;;;;6190167;23;20001;-83
2021/01/03 11:14:56;;;;;;;48.00;24.63;;;4.60;61.70;;;;;;6189499;23;20012;-83
2021/01/03 11:17:22;;;;;;;52.87;24.53;;;4.60;61.60;;;;;;6189915;23;20436;-83
2021/01/03 11:19:48;;;;;;;49.73;24.60;;;4.60;61.60;;;;;;6191246;23;20000;-83
2021/01/03 11:22:16;;;;;;;44.97;24.80;;;4.60;61.70;;;;;;6217252;23;20456;-83
2021/01/03 11:24:43;;;;;;;48.43;24.77;;;4.60;61.70;;;;;;6189366;23;20416;-83
2021/01/03 11:27:12;;;;;;;48.87;24.53;;;4.60;61.70;;;;;;6189899;23;20005;-83
2021/01/03 11:29:39;;;;;;;56.10;26.13;;;4.70;61.60;;;;;;6190338;23;20454;-83
2021/01/03 11:32:10;;;;;;;48.73;26.63;;;4.70;61.60;;;;;;6190110;23;20332;-83
2021/01/03 11:34:36;;;;;;;51.30;24.30;;;4.70;61.40;;;;;;6189928;23;20055;-83
2021/01/03 11:37:09;;;;;;;48.80;26.47;;;4.70;61.50;;;;;;6189741;23;20062;-83
2021/01/03 11:39:35;;;;;;;;;;;4.70;61.50;;;;;;6216545;23;19996;-83
2021/01/03 11:42:03;;;;;;;52.37;25.87;;;4.70;61.60;;;;;;6174850;23;19913;-83
2021/01/03 11:44:29;;;;;;;51.40;27.20;;;4.70;61.50;;;;;;6160165;23;19997;-83
2021/01/03 11:47:06;;;;;;;54.53;25.97;;;4.80;61.60;;;;;;6158735;23;20081;-84
2021/01/03 11:49:33;;;;;;;46.60;23.80;;;4.80;61.30;;;;;;6159473;23;20067;-83
2021/01/03 11:52:00;;;;;;;48.93;23.63;;;4.70;61.40;;;;;;6159894;23;20015;-83
2021/01/03 11:54:26;;;;;;;51.37;26.00;;;4.70;61.20;;;;;;6185865;23;20374;-83
2021/01/03 11:56:55;;;;;;;47.70;24.10;;;4.60;61.50;;;;;;6186442;23;20008;-83
2021/01/03 11:59:22;;;;;;;50.83;25.57;;;4.70;61.50;;;;;;6159064;23;20137;-83
2021/01/03 12:01:48;;;;;;;50.90;24.60;;;4.70;61.40;;;;;;6185925;23;20020;-83
2021/01/03 12:04:14;;;;;;;47.07;25.03;;;4.70;61.40;;;;;;6184844;23;20328;-83
2021/01/03 12:06:39;;;;;;;46.73;24.77;;;4.80;61.30;;;;;;6187591;23;20008;-83
2021/01/03 12:09:05;;;;;;;47.93;23.53;;;4.80;61.30;;;;;;6158487;23;20001;-84
2021/01/03 12:11:31;;;;;;;45.17;24.57;;;4.80;61.20;;;;;;6160176;23;20060;-84
2021/01/03 12:14:01;;;;;;;49.07;24.20;;;4.80;61.20;;;;;;6160307;23;20009;-84
2021/01/03 12:16:31;;;;;;;43.70;23.87;;;4.80;61.70;;;;;;6159578;23;20009;-84
2021/01/03 12:18:57;;;;;;;44.13;23.57;;;4.80;61.20;;;;;;6159856;23;20349;-84
2021/01/03 12:21:31;;;;;;;42.30;22.37;;;4.80;60.90;;;;;;6162591;23;20032;-84
2021/01/03 12:23:58;;;;;;;44.23;24.00;;;4.80;61.00;;;;;;6162551;23;20035;-84
2021/01/03 12:26:32;;;;;;;41.60;22.57;;;4.80;61.10;;;;;;6162200;23;20463;-84
2021/01/03 12:28:58;;;;;;;48.70;24.23;;;4.80;61.10;;;;;;6162521;23;20009;-84
2021/01/03 12:31:31;;;;;;;44.57;24.70;;;4.80;61.60;;;;;;6189663;23;20433;-84
2021/01/03 12:33:56;;;;;;;48.88;23.95;;;4.80;61.00;;;;;;6163848;23;20005;-84
2021/01/03 12:36:22;;;;;;;50.67;26.63;;;4.80;61.00;;;;;;6163013;23;20025;-84
2021/01/03 12:38:47;;;;;;;51.67;24.10;;;4.80;61.00;;;;;;6163171;23;20036;-84
2021/01/03 12:41:18;;;;;;;43.50;22.37;;;4.80;61.00;;;;;;6195942;23;20043;-84
2021/01/03 12:43:46;;;;;;;50.83;23.90;;;4.80;60.80;;;;;;6192460;23;20005;-84
2021/01/03 12:46:12;;;;;;;47.63;23.63;;;4.80;60.90;;;;;;6193268;23;20005;-84
2021/01/03 12:48:39;;;;;;;50.50;24.70;;;4.80;60.90;;;;;;6194217;23;20043;-84
2021/01/03 12:51:05;;;;;;;44.93;22.93;;;4.80;61.00;;;;;;6194287;23;20325;-84
2021/01/03 12:53:31;;;;;;;43.97;21.93;;;4.80;60.90;;;;;;6195269;23;20005;-84
2021/01/03 12:55:56;;;;;;;48.67;24.07;;;4.80;60.80;;;;;;6193837;23;20015;-84
2021/01/03 12:58:22;;;;;;;44.47;23.67;;;4.80;60.80;;;;;;6192814;23;20012;-84
2021/01/03 13:00:48;;;;;;;46.00;23.43;;;4.80;61.40;;;;;;6194114;23;20001;-84
2021/01/03 13:03:15;;;;;;;42.70;23.77;;;4.80;60.80;;;;;;6193782;23;20019;-84